createdAt,value
2022-09-04T00:00:35.540Z,0.00
2022-09-04T00:01:35.464Z,0.00
2022-09-04T00:02:35.429Z,0.00
2022-09-04T00:03:35.389Z,0.00
2022-09-04T00:04:35.497Z,0.00
2022-09-04T00:05:35.211Z,0.00
2022-09-04T00:06:37.898Z,0.00
2022-09-04T00:07:35.100Z,0.00
2022-09-04T00:08:35.013Z,0.00
2022-09-04T00:09:34.978Z,0.00
2022-09-04T00:10:34.878Z,0.00
2022-09-04T00:11:34.817Z,0.00
2022-09-04T00:12:34.787Z,0.00
2022-09-04T00:13:34.676Z,0.00
2022-09-04T00:14:34.641Z,0.00
2022-09-04T00:15:34.563Z,0.00
2022-09-04T00:16:34.572Z,0.00
2022-09-04T00:17:34.446Z,0.00
2022-09-04T00:18:35.161Z,0.00
2022-09-04T00:19:34.312Z,0.00
2022-09-04T00:20:34.225Z,0.00
2022-09-04T00:21:34.187Z,0.00
2022-09-04T00:22:35.090Z,0.00
2022-09-04T00:23:34.042Z,0.00
2022-09-04T00:24:35.788Z,0.00
2022-09-04T00:25:33.929Z,0.00
2022-09-04T00:26:33.865Z,0.00
2022-09-04T00:27:35.960Z,0.00
2022-09-04T00:28:33.720Z,0.00
2022-09-04T00:29:33.662Z,0.00
2022-09-04T00:30:33.641Z,0.00
2022-09-04T00:31:33.555Z,0.00
2022-09-04T00:32:33.477Z,0.00
2022-09-04T00:33:33.380Z,0.00
2022-09-04T00:34:33.309Z,0.00
2022-09-04T00:35:33.246Z,0.00
2022-09-04T00:36:33.977Z,0.00
2022-09-04T00:37:33.129Z,0.00
2022-09-04T00:38:33.063Z,0.00
2022-09-04T00:39:33.077Z,0.00
2022-09-04T00:40:32.944Z,0.00
2022-09-04T00:41:32.854Z,0.00
2022-09-04T00:42:33.615Z,0.00
2022-09-04T00:43:33.580Z,0.00
2022-09-04T00:44:32.706Z,0.00
2022-09-04T00:45:32.629Z,0.00
2022-09-04T00:46:32.565Z,0.00
2022-09-04T00:47:32.488Z,0.00
2022-09-04T00:48:32.432Z,0.00
2022-09-04T00:49:32.375Z,0.00
2022-09-04T00:50:32.279Z,0.00
2022-09-04T00:51:32.205Z,0.00
2022-09-04T00:52:36.707Z,0.00
2022-09-04T00:53:32.078Z,0.00
2022-09-04T00:54:32.307Z,0.00
2022-09-04T00:55:31.969Z,0.00
2022-09-04T00:56:31.903Z,0.00
2022-09-04T00:57:31.830Z,0.00
2022-09-04T00:58:31.779Z,0.00
2022-09-04T00:59:31.709Z,0.00
2022-09-04T01:00:31.646Z,0.00
2022-09-04T01:01:31.644Z,0.00
2022-09-04T01:02:31.590Z,0.00
2022-09-04T01:03:31.433Z,0.00
2022-09-04T01:04:31.376Z,0.00
2022-09-04T01:05:31.334Z,0.00
2022-09-04T01:06:32.045Z,0.00
2022-09-04T01:07:31.204Z,0.00
2022-09-04T01:08:31.155Z,0.00
2022-09-04T01:09:31.074Z,0.00
2022-09-04T01:10:31.006Z,0.00
2022-09-04T01:11:30.939Z,0.00
2022-09-04T01:12:30.857Z,0.00
2022-09-04T01:13:30.802Z,0.00
2022-09-04T01:14:30.739Z,0.00
2022-09-04T01:15:30.703Z,0.00
2022-09-04T01:16:30.630Z,0.00
2022-09-04T01:17:30.555Z,0.00
2022-09-04T01:18:32.878Z,0.00
2022-09-04T01:19:30.394Z,0.00
2022-09-04T01:20:30.341Z,0.00
2022-09-04T01:21:30.270Z,0.00
2022-09-04T01:22:30.220Z,0.00
2022-09-04T01:23:30.141Z,0.00
2022-09-04T01:24:30.087Z,0.00
2022-09-04T01:25:30.034Z,0.00
2022-09-04T01:26:29.974Z,0.00
2022-09-04T01:27:29.903Z,0.00
2022-09-04T01:28:29.818Z,0.00
2022-09-04T01:29:29.758Z,0.00
2022-09-04T01:30:32.251Z,0.00
2022-09-04T01:31:29.803Z,0.00
2022-09-04T01:32:29.553Z,0.00
2022-09-04T01:33:29.457Z,0.00
2022-09-04T01:34:29.441Z,0.00
2022-09-04T01:35:29.356Z,0.00
2022-09-04T01:36:31.665Z,0.00
2022-09-04T01:37:29.266Z,0.00
2022-09-04T01:38:29.162Z,0.00
2022-09-04T01:39:29.132Z,0.00
2022-09-04T01:40:36.060Z,0.00
2022-09-04T01:41:28.976Z,0.00
2022-09-04T01:42:28.923Z,0.00
2022-09-04T01:43:28.848Z,0.00
2022-09-04T01:44:28.771Z,0.00
2022-09-04T01:45:28.751Z,0.00
2022-09-04T01:46:28.646Z,0.00
2022-09-04T01:47:28.577Z,0.00
2022-09-04T01:48:28.526Z,0.00
2022-09-04T01:49:28.470Z,0.00
2022-09-04T01:50:28.375Z,0.00
2022-09-04T01:51:28.327Z,0.00
2022-09-04T01:52:28.257Z,0.00
2022-09-04T01:53:28.197Z,0.00
2022-09-04T01:54:29.604Z,0.00
2022-09-04T01:55:28.096Z,0.00
2022-09-04T01:56:28.008Z,0.00
2022-09-04T01:57:27.936Z,0.00
2022-09-04T01:58:27.878Z,0.00
2022-09-04T01:59:27.805Z,0.00
2022-09-04T02:00:28.983Z,0.00
2022-09-04T02:01:27.776Z,0.00
2022-09-04T02:02:27.729Z,0.00
2022-09-04T02:03:27.546Z,0.00
2022-09-04T02:04:27.505Z,0.00
2022-09-04T02:05:27.432Z,0.00
2022-09-04T02:06:27.393Z,0.00
2022-09-04T02:07:27.284Z,0.00
2022-09-04T02:08:27.226Z,0.00
2022-09-04T02:09:27.183Z,0.00
2022-09-04T02:10:27.095Z,0.00
2022-09-04T02:11:27.789Z,0.00
2022-09-04T02:12:26.975Z,0.00
2022-09-04T02:13:26.922Z,0.00
2022-09-04T02:14:26.834Z,0.00
2022-09-04T02:15:26.775Z,0.00
2022-09-04T02:16:26.904Z,0.00
2022-09-04T02:17:26.663Z,0.00
2022-09-04T02:18:32.162Z,0.00
2022-09-04T02:19:26.492Z,0.00
2022-09-04T02:20:26.433Z,0.00
2022-09-04T02:21:26.395Z,0.00
2022-09-04T02:22:26.337Z,0.00
2022-09-04T02:23:26.261Z,0.00
2022-09-04T02:24:26.185Z,0.00
2022-09-04T02:25:26.113Z,0.00
2022-09-04T02:26:26.055Z,0.00
2022-09-04T02:27:25.973Z,0.00
2022-09-04T02:28:26.134Z,0.00
2022-09-04T02:29:25.854Z,0.00
2022-09-04T02:30:25.863Z,0.00
2022-09-04T02:31:25.790Z,0.00
2022-09-04T02:32:25.680Z,0.00
2022-09-04T02:33:25.621Z,0.00
2022-09-04T02:34:25.523Z,0.00
2022-09-04T02:35:25.491Z,0.00
2022-09-04T02:36:27.954Z,0.00
2022-09-04T02:37:25.350Z,0.00
2022-09-04T02:38:26.120Z,0.00
2022-09-04T02:39:25.242Z,0.00
2022-09-04T02:40:25.128Z,0.00
2022-09-04T02:41:25.085Z,0.00
2022-09-04T02:42:25.784Z,0.00
2022-09-04T02:43:24.945Z,0.00
2022-09-04T02:44:24.902Z,0.00
2022-09-04T02:45:24.830Z,0.00
2022-09-04T02:46:24.765Z,0.00
2022-09-04T02:47:24.696Z,0.00
2022-09-04T02:48:24.779Z,0.00
2022-09-04T02:49:24.581Z,0.00
2022-09-04T02:50:24.487Z,0.00
2022-09-04T02:51:24.420Z,0.00
2022-09-04T02:52:24.341Z,0.00
2022-09-04T02:53:24.287Z,0.00
2022-09-04T02:54:24.512Z,0.00
2022-09-04T02:55:24.161Z,0.00
2022-09-04T02:56:24.120Z,0.00
2022-09-04T02:57:24.050Z,0.00
2022-09-04T02:58:24.097Z,0.00
2022-09-04T02:59:23.919Z,0.00
2022-09-04T03:00:23.875Z,0.00
2022-09-04T03:01:23.781Z,0.00
2022-09-04T03:02:23.708Z,0.00
2022-09-04T03:03:23.659Z,0.00
2022-09-04T03:04:23.572Z,0.00
2022-09-04T03:05:23.512Z,0.00
2022-09-04T03:06:25.880Z,0.00
2022-09-04T03:07:23.398Z,0.00
2022-09-04T03:08:23.394Z,0.00
2022-09-04T03:09:23.213Z,0.00
2022-09-04T03:10:23.182Z,0.00
2022-09-04T03:11:23.139Z,0.00
2022-09-04T03:12:23.063Z,0.00
2022-09-04T03:13:22.987Z,0.00
2022-09-04T03:14:22.920Z,0.00
2022-09-04T03:15:22.879Z,0.00
2022-09-04T03:16:22.837Z,0.00
2022-09-04T03:17:22.749Z,0.00
2022-09-04T03:18:22.710Z,0.00
2022-09-04T03:19:22.601Z,0.00
2022-09-04T03:20:22.562Z,0.00
2022-09-04T03:21:22.448Z,0.00
2022-09-04T03:22:22.383Z,0.00
2022-09-04T03:23:22.341Z,0.00
2022-09-04T03:24:22.308Z,0.00
2022-09-04T03:25:22.229Z,0.00
2022-09-04T03:26:22.121Z,0.00
2022-09-04T03:27:22.070Z,0.00
2022-09-04T03:28:22.000Z,0.00
2022-09-04T03:29:21.953Z,0.00
2022-09-04T03:30:23.108Z,0.00
2022-09-04T03:31:21.864Z,0.00
2022-09-04T03:32:21.737Z,0.00
2022-09-04T03:33:21.680Z,0.00
2022-09-04T03:34:21.609Z,0.00
2022-09-04T03:35:21.549Z,0.00
2022-09-04T03:36:21.528Z,0.00
2022-09-04T03:37:21.429Z,0.00
2022-09-04T03:38:21.358Z,0.00
2022-09-04T03:39:21.369Z,0.00
2022-09-04T03:40:21.229Z,0.00
2022-09-04T03:41:21.175Z,0.00
2022-09-04T03:42:22.133Z,0.00
2022-09-04T03:43:21.041Z,0.00
2022-09-04T03:44:20.960Z,0.00
2022-09-04T03:45:20.898Z,0.00
2022-09-04T03:46:20.870Z,0.00
2022-09-04T03:47:20.768Z,0.00
2022-09-04T03:48:20.768Z,0.00
2022-09-04T03:49:20.666Z,0.00
2022-09-04T03:50:20.581Z,0.00
2022-09-04T03:51:20.536Z,0.00
2022-09-04T03:52:20.432Z,0.00
2022-09-04T03:53:20.389Z,0.00
2022-09-04T03:54:20.647Z,0.00
2022-09-04T03:55:20.247Z,0.00
2022-09-04T03:56:20.199Z,0.00
2022-09-04T03:57:20.118Z,0.00
2022-09-04T03:58:20.096Z,0.00
2022-09-04T03:59:20.015Z,0.00
2022-09-04T04:00:19.920Z,0.00
2022-09-04T04:01:24.708Z,0.00
2022-09-04T04:02:19.783Z,0.00
2022-09-04T04:03:19.777Z,0.00
2022-09-04T04:04:19.684Z,0.00
2022-09-04T04:05:19.576Z,0.00
2022-09-04T04:06:19.574Z,0.00
2022-09-04T04:07:19.414Z,0.00
2022-09-04T04:08:19.491Z,0.00
2022-09-04T04:09:19.313Z,0.00
2022-09-04T04:10:19.220Z,0.00
2022-09-04T04:11:19.189Z,0.00
2022-09-04T04:12:19.915Z,0.00
2022-09-04T04:13:19.045Z,0.00
2022-09-04T04:14:18.955Z,0.00
2022-09-04T04:15:18.941Z,0.00
2022-09-04T04:16:24.541Z,0.00
2022-09-04T04:17:20.610Z,0.00
2022-09-04T04:18:20.273Z,0.00
2022-09-04T04:19:18.628Z,0.00
2022-09-04T04:20:18.569Z,0.00
2022-09-04T04:21:18.485Z,0.00
2022-09-04T04:22:18.422Z,0.00
2022-09-04T04:23:18.366Z,0.00
2022-09-04T04:24:18.295Z,0.00
2022-09-04T04:25:18.254Z,0.00
2022-09-04T04:26:18.195Z,0.00
2022-09-04T04:27:18.108Z,0.00
2022-09-04T04:28:18.059Z,0.00
2022-09-04T04:29:18.002Z,0.00
2022-09-04T04:30:17.926Z,0.00
2022-09-04T04:31:17.886Z,0.00
2022-09-04T04:32:17.767Z,0.00
2022-09-04T04:33:17.730Z,0.00
2022-09-04T04:34:17.643Z,0.00
2022-09-04T04:35:17.585Z,0.00
2022-09-04T04:36:17.554Z,0.00
2022-09-04T04:37:17.457Z,0.00
2022-09-04T04:38:17.374Z,0.00
2022-09-04T04:39:17.324Z,0.00
2022-09-04T04:40:17.271Z,0.00
2022-09-04T04:41:17.205Z,0.00
2022-09-04T04:42:17.132Z,0.00
2022-09-04T04:43:17.043Z,0.00
2022-09-04T04:44:17.023Z,0.00
2022-09-04T04:45:16.934Z,0.00
2022-09-04T04:46:16.945Z,5.62
2022-09-04T04:47:16.795Z,5.62
2022-09-04T04:48:17.852Z,5.62
2022-09-04T04:49:16.691Z,5.62
2022-09-04T04:50:16.633Z,5.62
2022-09-04T04:51:16.548Z,5.62
2022-09-04T04:52:16.474Z,5.62
2022-09-04T04:53:16.407Z,5.62
2022-09-04T04:54:16.390Z,5.62
2022-09-04T04:55:16.284Z,5.62
2022-09-04T04:56:16.231Z,5.62
2022-09-04T04:57:16.154Z,5.62
2022-09-04T04:58:16.084Z,11.25
2022-09-04T04:59:16.025Z,11.25
2022-09-04T05:00:17.180Z,11.25
2022-09-04T05:01:15.883Z,11.25
2022-09-04T05:02:15.926Z,11.25
2022-09-04T05:03:15.769Z,11.25
2022-09-04T05:04:15.693Z,11.25
2022-09-04T05:05:15.638Z,11.25
2022-09-04T05:06:15.599Z,11.25
2022-09-04T05:07:15.508Z,16.88
2022-09-04T05:08:15.417Z,16.88
2022-09-04T05:09:15.378Z,16.88
2022-09-04T05:10:15.279Z,16.88
2022-09-04T05:11:15.231Z,16.88
2022-09-04T05:12:16.688Z,16.88
2022-09-04T05:13:15.102Z,16.88
2022-09-04T05:14:15.042Z,16.88
2022-09-04T05:15:14.990Z,22.50
2022-09-04T05:16:18.967Z,22.50
2022-09-04T05:17:14.915Z,22.50
2022-09-04T05:18:15.568Z,22.50
2022-09-04T05:19:14.712Z,22.50
2022-09-04T05:20:14.657Z,22.50
2022-09-04T05:21:14.618Z,22.50
2022-09-04T05:22:14.511Z,28.12
2022-09-04T05:23:14.450Z,28.12
2022-09-04T05:24:15.931Z,28.12
2022-09-04T05:25:14.323Z,28.12
2022-09-04T05:26:14.245Z,28.12
2022-09-04T05:27:14.190Z,28.12
2022-09-04T05:28:14.119Z,28.12
2022-09-04T05:29:14.049Z,33.75
2022-09-04T05:30:14.015Z,33.75
2022-09-04T05:31:14.000Z,33.75
2022-09-04T05:32:13.866Z,33.75
2022-09-04T05:33:13.816Z,33.75
2022-09-04T05:34:13.747Z,33.75
2022-09-04T05:35:13.677Z,33.75
2022-09-04T05:36:13.626Z,33.75
2022-09-04T05:37:13.545Z,33.75
2022-09-04T05:38:13.486Z,33.75
2022-09-04T05:39:13.406Z,33.75
2022-09-04T05:40:13.357Z,33.75
2022-09-04T05:41:13.285Z,39.38
2022-09-04T05:42:13.235Z,39.38
2022-09-04T05:43:13.147Z,39.38
2022-09-04T05:44:13.078Z,39.38
2022-09-04T05:45:13.005Z,39.38
2022-09-04T05:46:12.994Z,45.00
2022-09-04T05:47:12.896Z,45.00
2022-09-04T05:48:12.828Z,45.00
2022-09-04T05:49:12.777Z,45.00
2022-09-04T05:50:12.716Z,50.62
2022-09-04T05:51:12.618Z,50.62
2022-09-04T05:52:12.560Z,56.25
2022-09-04T05:53:12.508Z,56.25
2022-09-04T05:54:15.119Z,61.88
2022-09-04T05:55:12.375Z,61.88
2022-09-04T05:56:12.295Z,61.88
2022-09-04T05:57:12.246Z,73.12
2022-09-04T05:58:12.168Z,73.12
2022-09-04T05:59:12.098Z,78.75
2022-09-04T06:00:12.843Z,84.38
2022-09-04T06:01:11.986Z,90.00
2022-09-04T06:02:12.042Z,101.25
2022-09-04T06:03:11.977Z,112.50
2022-09-04T06:04:11.784Z,112.50
2022-09-04T06:05:11.706Z,129.38
2022-09-04T06:06:11.647Z,135.00
2022-09-04T06:07:11.579Z,140.62
2022-09-04T06:08:11.518Z,146.25
2022-09-04T06:09:11.450Z,151.88
2022-09-04T06:10:11.403Z,151.88
2022-09-04T06:11:11.315Z,146.25
2022-09-04T06:12:18.722Z,168.75
2022-09-04T06:13:11.203Z,225.00
2022-09-04T06:14:11.116Z,303.75
2022-09-04T06:15:11.054Z,326.25
2022-09-04T06:16:11.040Z,405.00
2022-09-04T06:17:10.935Z,444.38
2022-09-04T06:18:10.877Z,427.50
2022-09-04T06:19:10.791Z,433.12
2022-09-04T06:20:10.729Z,421.88
2022-09-04T06:21:10.682Z,427.50
2022-09-04T06:22:10.586Z,450.00
2022-09-04T06:23:10.534Z,483.75
2022-09-04T06:24:11.703Z,495.00
2022-09-04T06:25:10.730Z,466.88
2022-09-04T06:26:10.323Z,461.25
2022-09-04T06:27:10.277Z,534.38
2022-09-04T06:28:10.193Z,579.38
2022-09-04T06:29:10.163Z,579.38
2022-09-04T06:30:10.126Z,573.75
2022-09-04T06:31:10.120Z,573.75
2022-09-04T06:32:09.960Z,601.88
2022-09-04T06:33:09.869Z,804.38
2022-09-04T06:34:09.842Z,1046.25
2022-09-04T06:35:09.741Z,1181.25
2022-09-04T06:36:09.712Z,1186.88
2022-09-04T06:37:09.653Z,1215.00
2022-09-04T06:38:09.565Z,1203.75
2022-09-04T06:39:09.512Z,1203.75
2022-09-04T06:40:09.464Z,1136.25
2022-09-04T06:41:09.346Z,1102.50
2022-09-04T06:42:09.304Z,1085.62
2022-09-04T06:43:09.220Z,990.00
2022-09-04T06:44:09.169Z,967.50
2022-09-04T06:45:09.102Z,1018.12
2022-09-04T06:46:09.120Z,1063.12
2022-09-04T06:47:08.987Z,1035.00
2022-09-04T06:48:10.114Z,990.00
2022-09-04T06:49:08.848Z,928.12
2022-09-04T06:50:08.804Z,967.50
2022-09-04T06:51:08.720Z,1018.12
2022-09-04T06:52:08.660Z,1012.50
2022-09-04T06:53:08.589Z,736.88
2022-09-04T06:54:08.573Z,450.00
2022-09-04T06:55:08.466Z,393.75
2022-09-04T06:56:08.421Z,360.00
2022-09-04T06:57:08.339Z,337.50
2022-09-04T06:58:08.292Z,320.62
2022-09-04T06:59:08.189Z,315.00
2022-09-04T07:00:09.542Z,303.75
2022-09-04T07:01:08.112Z,303.75
2022-09-04T07:02:08.101Z,303.75
2022-09-04T07:03:07.955Z,298.12
2022-09-04T07:04:07.876Z,298.12
2022-09-04T07:05:07.825Z,298.12
2022-09-04T07:06:08.581Z,298.12
2022-09-04T07:07:07.753Z,298.12
2022-09-04T07:08:07.637Z,292.50
2022-09-04T07:09:07.581Z,292.50
2022-09-04T07:10:10.466Z,286.88
2022-09-04T07:11:07.461Z,286.88
2022-09-04T07:12:07.426Z,286.88
2022-09-04T07:13:07.317Z,292.50
2022-09-04T07:14:07.286Z,292.50
2022-09-04T07:15:07.191Z,292.50
2022-09-04T07:16:07.189Z,298.12
2022-09-04T07:17:07.060Z,303.75
2022-09-04T07:18:08.218Z,286.88
2022-09-04T07:19:06.922Z,286.88
2022-09-04T07:20:06.872Z,281.25
2022-09-04T07:21:06.809Z,281.25
2022-09-04T07:22:06.731Z,286.88
2022-09-04T07:23:06.704Z,286.88
2022-09-04T07:24:07.414Z,281.25
2022-09-04T07:25:06.569Z,275.62
2022-09-04T07:26:06.506Z,264.38
2022-09-04T07:27:06.455Z,292.50
2022-09-04T07:28:06.389Z,292.50
2022-09-04T07:29:06.339Z,292.50
2022-09-04T07:30:06.285Z,292.50
2022-09-04T07:31:06.253Z,292.50
2022-09-04T07:32:06.117Z,292.50
2022-09-04T07:33:06.074Z,286.88
2022-09-04T07:34:05.975Z,286.88
2022-09-04T07:35:05.944Z,286.88
2022-09-04T07:36:05.863Z,292.50
2022-09-04T07:37:05.808Z,298.12
2022-09-04T07:38:05.735Z,298.12
2022-09-04T07:39:05.781Z,298.12
2022-09-04T07:40:06.514Z,298.12
2022-09-04T07:41:05.580Z,298.12
2022-09-04T07:42:05.498Z,298.12
2022-09-04T07:43:05.429Z,298.12
2022-09-04T07:44:05.353Z,298.12
2022-09-04T07:45:05.300Z,298.12
2022-09-04T07:46:05.313Z,292.50
2022-09-04T07:47:05.170Z,292.50
2022-09-04T07:48:07.415Z,298.12
2022-09-04T07:49:05.050Z,298.12
2022-09-04T07:50:04.983Z,292.50
2022-09-04T07:51:05.060Z,292.50
2022-09-04T07:52:04.852Z,292.50
2022-09-04T07:53:08.281Z,286.88
2022-09-04T07:54:04.766Z,286.88
2022-09-04T07:55:04.692Z,281.25
2022-09-04T07:56:04.585Z,286.88
2022-09-04T07:57:04.568Z,286.88
2022-09-04T07:58:04.483Z,286.88
2022-09-04T07:59:04.421Z,286.88
2022-09-04T08:00:04.668Z,292.50
2022-09-04T08:01:04.429Z,292.50
2022-09-04T08:02:04.287Z,281.25
2022-09-04T08:03:04.177Z,292.50
2022-09-04T08:04:04.090Z,292.50
2022-09-04T08:05:04.088Z,298.12
2022-09-04T08:06:05.795Z,298.12
2022-09-04T08:07:07.106Z,303.75
2022-09-04T08:08:03.872Z,303.75
2022-09-04T08:09:03.806Z,292.50
2022-09-04T08:10:03.747Z,309.38
2022-09-04T08:11:03.689Z,309.38
2022-09-04T08:12:04.371Z,320.62
2022-09-04T08:13:03.542Z,326.25
2022-09-04T08:14:03.481Z,326.25
2022-09-04T08:15:03.422Z,348.75
2022-09-04T08:16:03.433Z,371.25
2022-09-04T08:17:03.302Z,534.38
2022-09-04T08:18:04.031Z,843.75
2022-09-04T08:19:03.163Z,1434.38
2022-09-04T08:20:03.112Z,1378.12
2022-09-04T08:21:03.061Z,1293.75
2022-09-04T08:22:02.983Z,1248.75
2022-09-04T08:23:02.900Z,1040.62
2022-09-04T08:24:02.872Z,556.88
2022-09-04T08:25:02.820Z,545.62
2022-09-04T08:26:02.751Z,1085.62
2022-09-04T08:27:02.704Z,725.62
2022-09-04T08:28:02.614Z,832.50
2022-09-04T08:29:02.527Z,528.75
2022-09-04T08:30:03.279Z,691.88
2022-09-04T08:31:02.483Z,393.75
2022-09-04T08:32:02.373Z,1496.25
2022-09-04T08:33:02.278Z,1648.12
2022-09-04T08:34:02.262Z,1445.62
2022-09-04T08:35:02.190Z,1372.50
2022-09-04T08:36:02.151Z,1254.38
2022-09-04T08:37:02.056Z,804.38
2022-09-04T08:38:02.012Z,382.50
2022-09-04T08:39:06.882Z,320.62
2022-09-04T08:40:01.963Z,303.75
2022-09-04T08:41:01.805Z,281.25
2022-09-04T08:42:01.735Z,309.38
2022-09-04T08:43:01.671Z,298.12
2022-09-04T08:44:01.614Z,298.12
2022-09-04T08:45:01.558Z,281.25
2022-09-04T08:46:01.510Z,298.12
2022-09-04T08:47:01.411Z,298.12
2022-09-04T08:48:03.685Z,303.75
2022-09-04T08:49:01.325Z,315.00
2022-09-04T08:50:01.268Z,326.25
2022-09-04T08:51:01.181Z,376.88
2022-09-04T08:52:01.130Z,736.88
2022-09-04T08:53:03.877Z,1530.00
2022-09-04T08:54:01.033Z,1974.38
2022-09-04T08:55:00.931Z,1957.50
2022-09-04T08:56:00.853Z,1878.75
2022-09-04T08:57:00.805Z,1732.50
2022-09-04T08:58:00.746Z,1732.50
2022-09-04T08:59:00.702Z,1715.62
2022-09-04T09:00:00.919Z,1777.50
2022-09-04T09:01:00.610Z,2036.25
2022-09-04T09:02:00.495Z,1991.25
2022-09-04T09:03:00.436Z,1912.50
2022-09-04T09:04:00.394Z,2115.00
2022-09-04T09:05:00.334Z,1991.25
2022-09-04T09:06:01.045Z,1558.12
2022-09-04T09:07:00.170Z,776.25
2022-09-04T09:08:00.144Z,388.12
2022-09-04T09:09:00.067Z,343.12
2022-09-04T09:10:00.025Z,326.25
2022-09-04T09:10:59.937Z,309.38
2022-09-04T09:12:02.470Z,298.12
2022-09-04T09:12:59.834Z,309.38
2022-09-04T09:14:01.930Z,292.50
2022-09-04T09:14:59.699Z,281.25
2022-09-04T09:15:59.628Z,286.88
2022-09-04T09:16:59.599Z,292.50
2022-09-04T09:17:59.545Z,286.88
2022-09-04T09:18:59.421Z,286.88
2022-09-04T09:19:59.405Z,281.25
2022-09-04T09:20:59.319Z,281.25
2022-09-04T09:21:59.273Z,275.62
2022-09-04T09:22:59.195Z,275.62
2022-09-04T09:23:59.147Z,275.62
2022-09-04T09:24:59.068Z,275.62
2022-09-04T09:25:59.012Z,270.00
2022-09-04T09:26:58.948Z,275.62
2022-09-04T09:27:58.887Z,275.62
2022-09-04T09:28:58.804Z,275.62
2022-09-04T09:29:59.565Z,286.88
2022-09-04T09:30:58.770Z,286.88
2022-09-04T09:32:03.393Z,298.12
2022-09-04T09:32:58.588Z,309.38
2022-09-04T09:33:58.534Z,354.38
2022-09-04T09:34:58.475Z,798.75
2022-09-04T09:35:58.391Z,1800.00
2022-09-04T09:36:58.329Z,2379.38
2022-09-04T09:38:02.340Z,2553.75
2022-09-04T09:38:58.220Z,2514.38
2022-09-04T09:39:58.212Z,2548.12
2022-09-04T09:40:59.284Z,2649.38
2022-09-04T09:41:58.793Z,2396.25
2022-09-04T09:42:57.955Z,2126.25
2022-09-04T09:43:57.904Z,1985.62
2022-09-04T09:44:57.858Z,1861.88
2022-09-04T09:45:57.805Z,1816.88
2022-09-04T09:46:57.726Z,956.25
2022-09-04T09:47:58.489Z,421.88
2022-09-04T09:48:57.616Z,337.50
2022-09-04T09:49:57.530Z,315.00
2022-09-04T09:50:57.488Z,298.12
2022-09-04T09:51:57.394Z,286.88
2022-09-04T09:52:57.328Z,286.88
2022-09-04T09:53:57.283Z,286.88
2022-09-04T09:54:57.223Z,275.62
2022-09-04T09:55:57.148Z,264.38
2022-09-04T09:56:57.103Z,270.00
2022-09-04T09:57:57.059Z,270.00
2022-09-04T09:58:56.978Z,270.00
2022-09-04T09:59:56.942Z,258.75
2022-09-04T10:00:57.009Z,253.12
2022-09-04T10:01:56.811Z,264.38
2022-09-04T10:02:56.731Z,270.00
2022-09-04T10:03:56.665Z,270.00
2022-09-04T10:04:56.612Z,264.38
2022-09-04T10:05:56.549Z,270.00
2022-09-04T10:06:56.485Z,275.62
2022-09-04T10:07:56.430Z,275.62
2022-09-04T10:08:56.363Z,275.62
2022-09-04T10:09:56.283Z,247.50
2022-09-04T10:10:56.242Z,275.62
2022-09-04T10:11:57.400Z,275.62
2022-09-04T10:12:56.124Z,275.62
2022-09-04T10:13:56.061Z,270.00
2022-09-04T10:14:56.010Z,264.38
2022-09-04T10:15:55.942Z,264.38
2022-09-04T10:16:55.888Z,258.75
2022-09-04T10:17:55.844Z,258.75
2022-09-04T10:18:55.744Z,253.12
2022-09-04T10:19:55.694Z,253.12
2022-09-04T10:20:55.653Z,247.50
2022-09-04T10:21:55.563Z,241.88
2022-09-04T10:22:55.504Z,236.25
2022-09-04T10:23:55.465Z,236.25
2022-09-04T10:24:55.385Z,230.62
2022-09-04T10:25:55.327Z,230.62
2022-09-04T10:26:55.252Z,230.62
2022-09-04T10:27:55.188Z,225.00
2022-09-04T10:28:55.144Z,225.00
2022-09-04T10:29:56.291Z,225.00
2022-09-04T10:30:55.063Z,225.00
2022-09-04T10:31:54.987Z,225.00
2022-09-04T10:32:54.912Z,225.00
2022-09-04T10:33:54.828Z,219.38
2022-09-04T10:34:54.797Z,213.75
2022-09-04T10:35:54.719Z,213.75
2022-09-04T10:36:54.679Z,208.12
2022-09-04T10:37:54.608Z,208.12
2022-09-04T10:38:54.522Z,208.12
2022-09-04T10:39:54.548Z,213.75
2022-09-04T10:40:54.400Z,208.12
2022-09-04T10:41:54.369Z,213.75
2022-09-04T10:42:54.276Z,213.75
2022-09-04T10:43:54.204Z,213.75
2022-09-04T10:44:54.151Z,213.75
2022-09-04T10:45:54.136Z,213.75
2022-09-04T10:46:54.065Z,213.75
2022-09-04T10:47:54.012Z,213.75
2022-09-04T10:48:53.921Z,213.75
2022-09-04T10:49:53.860Z,213.75
2022-09-04T10:50:53.803Z,213.75
2022-09-04T10:51:53.744Z,208.12
2022-09-04T10:52:53.655Z,208.12
2022-09-04T10:53:54.804Z,202.50
2022-09-04T10:54:53.548Z,196.88
2022-09-04T10:55:53.477Z,196.88
2022-09-04T10:56:53.415Z,191.25
2022-09-04T10:57:53.384Z,191.25
2022-09-04T10:58:53.316Z,157.50
2022-09-04T10:59:58.396Z,67.50
2022-09-04T11:00:53.213Z,78.75
2022-09-04T11:01:53.155Z,185.62
2022-09-04T11:02:53.076Z,185.62
2022-09-04T11:03:52.998Z,202.50
2022-09-04T11:04:52.931Z,810.00
2022-09-04T11:05:52.881Z,911.25
2022-09-04T11:06:52.798Z,191.25
2022-09-04T11:07:52.768Z,151.88
2022-09-04T11:08:52.705Z,146.25
2022-09-04T11:09:52.621Z,140.62
2022-09-04T11:10:52.560Z,135.00
2022-09-04T11:11:52.503Z,135.00
2022-09-04T11:12:52.420Z,135.00
2022-09-04T11:13:52.376Z,129.38
2022-09-04T11:14:52.337Z,123.75
2022-09-04T11:15:52.267Z,118.12
2022-09-04T11:16:52.264Z,118.12
2022-09-04T11:17:54.105Z,118.12
2022-09-04T11:18:52.060Z,112.50
2022-09-04T11:19:52.029Z,112.50
2022-09-04T11:20:51.957Z,112.50
2022-09-04T11:21:51.901Z,112.50
2022-09-04T11:22:51.810Z,112.50
2022-09-04T11:23:52.022Z,112.50
2022-09-04T11:24:51.694Z,106.88
2022-09-04T11:25:51.628Z,106.88
2022-09-04T11:26:51.561Z,106.88
2022-09-04T11:27:51.490Z,101.25
2022-09-04T11:28:51.445Z,95.62
2022-09-04T11:29:51.393Z,90.00
2022-09-04T11:30:51.348Z,90.00
2022-09-04T11:31:51.387Z,84.38
2022-09-04T11:32:51.193Z,84.38
2022-09-04T11:33:51.160Z,84.38
2022-09-04T11:34:51.087Z,84.38
2022-09-04T11:35:51.054Z,78.75
2022-09-04T11:36:50.942Z,78.75
2022-09-04T11:37:53.611Z,78.75
2022-09-04T11:38:50.823Z,78.75
2022-09-04T11:39:50.809Z,78.75
2022-09-04T11:40:50.700Z,78.75
2022-09-04T11:41:51.414Z,78.75
2022-09-04T11:42:50.574Z,78.75
2022-09-04T11:43:50.495Z,78.75
2022-09-04T11:44:50.472Z,78.75
2022-09-04T11:45:50.432Z,78.75
2022-09-04T11:46:50.321Z,78.75
2022-09-04T11:47:51.453Z,78.75
2022-09-04T11:48:50.310Z,78.75
2022-09-04T11:49:50.136Z,78.75
2022-09-04T11:50:50.073Z,78.75
2022-09-04T11:51:50.029Z,78.75
2022-09-04T11:52:49.949Z,78.75
2022-09-04T11:53:50.926Z,78.75
2022-09-04T11:54:49.852Z,78.75
2022-09-04T11:55:52.737Z,84.38
2022-09-04T11:56:49.679Z,95.62
2022-09-04T11:57:49.707Z,101.25
2022-09-04T11:58:49.568Z,112.50
2022-09-04T11:59:51.090Z,118.12
2022-09-04T12:00:49.453Z,202.50
2022-09-04T12:01:49.443Z,433.12
2022-09-04T12:02:49.348Z,241.88
2022-09-04T12:03:49.383Z,95.62
2022-09-04T12:04:49.206Z,95.62
2022-09-04T12:05:49.173Z,106.88
2022-09-04T12:06:49.091Z,151.88
2022-09-04T12:07:49.074Z,90.00
2022-09-04T12:08:48.999Z,95.62
2022-09-04T12:09:48.897Z,95.62
2022-09-04T12:10:48.828Z,95.62
2022-09-04T12:11:49.562Z,106.88
2022-09-04T12:12:48.697Z,112.50
2022-09-04T12:13:48.637Z,196.88
2022-09-04T12:14:48.575Z,174.38
2022-09-04T12:15:48.505Z,90.00
2022-09-04T12:16:48.512Z,157.50
2022-09-04T12:17:49.085Z,112.50
2022-09-04T12:18:48.421Z,73.12
2022-09-04T12:19:48.273Z,78.75
2022-09-04T12:20:48.195Z,118.12
2022-09-04T12:21:48.117Z,95.62
2022-09-04T12:22:48.067Z,140.62
2022-09-04T12:23:48.013Z,106.88
2022-09-04T12:24:47.933Z,78.75
2022-09-04T12:25:47.888Z,73.12
2022-09-04T12:26:51.365Z,67.50
2022-09-04T12:27:47.768Z,67.50
2022-09-04T12:28:47.814Z,67.50
2022-09-04T12:29:49.136Z,67.50
2022-09-04T12:30:47.583Z,73.12
2022-09-04T12:31:51.614Z,202.50
2022-09-04T12:32:47.466Z,129.38
2022-09-04T12:33:47.407Z,298.12
2022-09-04T12:34:47.347Z,320.62
2022-09-04T12:35:49.609Z,326.25
2022-09-04T12:36:47.213Z,106.88
2022-09-04T12:37:47.119Z,135.00
2022-09-04T12:38:47.161Z,78.75
2022-09-04T12:39:47.103Z,101.25
2022-09-04T12:40:46.960Z,67.50
2022-09-04T12:41:49.889Z,67.50
2022-09-04T12:42:46.825Z,67.50
2022-09-04T12:43:46.759Z,67.50
2022-09-04T12:44:46.698Z,67.50
2022-09-04T12:45:46.686Z,67.50
2022-09-04T12:46:46.558Z,50.62
2022-09-04T12:47:46.521Z,50.62
2022-09-04T12:48:46.444Z,61.88